createdAt,value
2023-05-06T00:01:57.212Z,101157.50
2023-05-06T00:04:23.994Z,101147.06
2023-05-06T00:06:51.374Z,101143.88
2023-05-06T00:09:17.999Z,101148.06
2023-05-06T00:11:45.779Z,101139.38
2023-05-06T00:14:12.418Z,101148.63
2023-05-06T00:16:39.016Z,101140.81
2023-05-06T00:19:05.669Z,101140.19
2023-05-06T00:21:32.124Z,101136.75
2023-05-06T00:23:58.625Z,101135.13
2023-05-06T00:26:25.085Z,101130.72
2023-05-06T00:28:51.599Z,101138.22
2023-05-06T00:31:18.118Z,101132.38
2023-05-06T00:33:44.922Z,101141.81
2023-05-06T00:36:11.399Z,101140.81
2023-05-06T00:38:37.878Z,101138.31
2023-05-06T00:41:04.533Z,101135.97
2023-05-06T00:43:31.041Z,101139.50
2023-05-06T00:45:57.633Z,101141.03
2023-05-06T00:48:24.767Z,101141.03
2023-05-06T00:50:51.337Z,101142.78
2023-05-06T00:53:21.575Z,101137.81
2023-05-06T00:55:49.875Z,101142.09
2023-05-06T00:58:18.833Z,101136.97
2023-05-06T01:00:45.781Z,101143.75
2023-05-06T01:03:12.588Z,101143.00
2023-05-06T01:06:05.887Z,101151.34
2023-05-06T01:08:37.350Z,101138.00
2023-05-06T01:11:17.055Z,101150.00
2023-05-06T01:14:20.759Z,101141.50
2023-05-06T01:16:50.224Z,101146.00
2023-05-06T01:19:41.787Z,101140.34
2023-05-06T01:22:10.939Z,101147.44
2023-05-06T01:24:45.142Z,101139.09
2023-05-06T01:27:13.223Z,101143.34
2023-05-06T01:29:42.606Z,101136.28
2023-05-06T01:32:39.434Z,101149.91
2023-05-06T01:35:20.867Z,101139.38
2023-05-06T01:37:54.986Z,101138.41
2023-05-06T01:40:26.104Z,101140.66
2023-05-06T01:42:53.189Z,101132.09
2023-05-06T01:45:21.743Z,101146.50
2023-05-06T01:47:49.513Z,101136.56
2023-05-06T01:50:16.305Z,101148.72
2023-05-06T01:52:43.026Z,101143.66
2023-05-06T01:55:10.058Z,101150.19
2023-05-06T01:57:37.689Z,101147.06
2023-05-06T02:00:05.691Z,101153.28
2023-05-06T02:02:32.405Z,101151.44
2023-05-06T02:04:59.078Z,101154.84
2023-05-06T02:07:25.752Z,101161.34
2023-05-06T02:09:52.530Z,101154.38
2023-05-06T02:12:19.219Z,101152.59
2023-05-06T02:14:45.885Z,101152.50
2023-05-06T02:17:12.573Z,101156.91
2023-05-06T02:19:39.282Z,101151.84
2023-05-06T02:22:06.023Z,101151.06
2023-05-06T02:24:32.710Z,101138.28
2023-05-06T02:26:59.379Z,101147.94
2023-05-06T02:29:26.081Z,101138.69
2023-05-06T02:31:52.801Z,101131.78
2023-05-06T02:34:19.606Z,101140.81
2023-05-06T02:36:46.297Z,101144.91
2023-05-06T02:39:12.980Z,101136.28
2023-05-06T02:41:39.663Z,101141.72
2023-05-06T02:44:06.398Z,101145.31
2023-05-06T02:46:33.312Z,101143.75
2023-05-06T02:49:00.808Z,101141.91
2023-05-06T02:51:27.476Z,101141.03
2023-05-06T02:53:54.129Z,101135.88
2023-05-06T02:56:21.586Z,101141.63
2023-05-06T02:58:48.294Z,101137.31
2023-05-06T03:01:15.037Z,101140.63
2023-05-06T03:03:42.009Z,101139.84
2023-05-06T03:06:08.905Z,101138.09
2023-05-06T03:08:35.579Z,101139.66
2023-05-06T03:11:02.436Z,101135.47
2023-05-06T03:13:29.132Z,101136.06
2023-05-06T03:15:56.679Z,101135.47
2023-05-06T03:18:23.371Z,101128.78
2023-05-06T03:20:50.284Z,101125.34
2023-05-06T03:23:17.000Z,101126.91
2023-05-06T03:25:43.665Z,101119.13
2023-05-06T03:28:11.531Z,101119.13
2023-05-06T03:30:38.311Z,101110.69
2023-05-06T03:33:05.009Z,101110.84
2023-05-06T03:35:31.766Z,101102.50
2023-05-06T03:37:58.429Z,101108.44
2023-05-06T03:40:25.176Z,101111.84
2023-05-06T03:42:51.842Z,101111.16
2023-05-06T03:45:18.548Z,101114.81
2023-05-06T03:47:45.629Z,101111.72
2023-05-06T03:50:12.852Z,101118.63
2023-05-06T03:52:39.702Z,101113.47
2023-05-06T03:55:07.015Z,101113.56
2023-05-06T03:57:33.863Z,101116.09
2023-05-06T04:00:00.640Z,101115.22
2023-05-06T04:02:29.211Z,101118.72
2023-05-06T04:04:55.973Z,101118.72
2023-05-06T04:07:22.674Z,101112.00
2023-05-06T04:09:49.607Z,101112.78
2023-05-06T04:12:16.314Z,101114.63
2023-05-06T04:14:42.982Z,101117.16
2023-05-06T04:17:09.636Z,101114.53
2023-05-06T04:19:36.550Z,101118.94
2023-05-06T04:22:03.240Z,101117.16
2023-05-06T04:24:31.148Z,101133.59
2023-05-06T04:26:57.830Z,101133.88
2023-05-06T04:29:25.183Z,101142.56
2023-05-06T04:31:53.856Z,101146.13
2023-05-06T04:34:20.729Z,101134.28
2023-05-06T04:36:47.815Z,101143.69
2023-05-06T04:39:14.583Z,101151.19
2023-05-06T04:41:41.762Z,101154.63
2023-05-06T04:44:08.434Z,101149.47
2023-05-06T04:46:36.002Z,101154.41
2023-05-06T04:49:02.759Z,101149.94
2023-05-06T04:51:29.611Z,101152.47
2023-05-06T04:53:56.335Z,101156.09
2023-05-06T04:56:22.986Z,101157.81
2023-05-06T04:58:49.749Z,101163.78
2023-05-06T05:01:16.700Z,101161.31
2023-05-06T05:03:43.551Z,101158.88
2023-05-06T05:06:11.313Z,101161.44
2023-05-06T05:08:37.974Z,101174.25
2023-05-06T05:11:07.741Z,101160.72
2023-05-06T05:13:34.844Z,101171.84
2023-05-06T05:16:02.347Z,101174.50
2023-05-06T05:18:29.204Z,101171.97
2023-05-06T05:20:56.235Z,101169.50
2023-05-06T05:23:22.924Z,101180.53
2023-05-06T05:25:49.907Z,101172.16
2023-05-06T05:28:16.623Z,101177.31
2023-05-06T05:30:43.565Z,101177.50
2023-05-06T05:33:10.468Z,101181.69
2023-05-06T05:35:37.331Z,101181.59
2023-05-06T05:38:03.987Z,101186.75
2023-05-06T05:40:31.309Z,101190.94
2023-05-06T05:42:57.988Z,101193.66
2023-05-06T05:48:13.062Z,101189.66
2023-05-06T05:50:39.718Z,101196.75
2023-05-06T05:53:06.690Z,101202.03
2023-05-06T05:55:33.486Z,101198.88
2023-05-06T05:58:00.169Z,101193.16
2023-05-06T06:00:26.885Z,101190.50
2023-05-06T06:02:53.684Z,101205.50
2023-05-06T06:05:20.461Z,101209.63
2023-05-06T06:07:47.193Z,101196.56
2023-05-06T06:10:15.315Z,101202.78
2023-05-06T06:12:44.584Z,101202.78
2023-05-06T06:15:13.257Z,101202.09
2023-05-06T06:17:39.964Z,101200.38
2023-05-06T06:20:07.354Z,101214.44
2023-05-06T06:22:34.041Z,101215.53
2023-05-06T06:25:00.758Z,101212.31
2023-05-06T06:27:27.431Z,101204.69
2023-05-06T06:29:54.125Z,101208.09
2023-05-06T06:32:20.837Z,101209.94
2023-05-06T06:34:47.512Z,101217.81
2023-05-06T06:37:14.170Z,101229.31
2023-05-06T06:39:40.808Z,101230.00
2023-05-06T06:42:07.466Z,101224.94
2023-05-06T06:44:34.567Z,101231.84
2023-05-06T06:47:01.346Z,101227.75
2023-05-06T06:49:28.051Z,101226.94
2023-05-06T06:51:56.676Z,101228.72
2023-05-06T06:54:24.032Z,101235.50
2023-05-06T06:56:56.099Z,101239.03
2023-05-06T06:59:23.150Z,101240.59
2023-05-06T07:01:51.758Z,101240.41
2023-05-06T07:04:18.443Z,101245.59
2023-05-06T07:06:45.614Z,101243.91
2023-05-06T07:09:13.240Z,101243.06
2023-05-06T07:11:39.943Z,101244.00
2023-05-06T07:14:07.101Z,101250.72
2023-05-06T07:16:33.963Z,101252.50
2023-05-06T07:19:01.221Z,101252.66
2023-05-06T07:21:28.280Z,101253.75
2023-05-06T07:23:54.986Z,101259.69
2023-05-06T07:26:21.868Z,101260.72
2023-05-06T07:28:48.585Z,101261.69
2023-05-06T07:31:16.360Z,101270.19
2023-05-06T07:33:43.107Z,101265.03
2023-05-06T07:36:09.809Z,101265.03
2023-05-06T07:38:36.470Z,101265.13
2023-05-06T07:41:03.299Z,101272.72
2023-05-06T07:43:30.020Z,101282.94
2023-05-06T07:46:02.850Z,101280.63
2023-05-06T07:48:30.339Z,101272.09
2023-05-06T07:50:57.437Z,101284.41
2023-05-06T07:53:24.284Z,101280.03
2023-05-06T07:55:52.450Z,101288.75
2023-05-06T07:58:19.158Z,101296.66
2023-05-06T08:00:45.851Z,101294.28
2023-05-06T08:03:12.599Z,101293.50
2023-05-06T08:05:39.464Z,101296.06
2023-05-06T08:08:06.188Z,101300.53
2023-05-06T08:10:32.848Z,101300.53
2023-05-06T08:12:59.602Z,101297.69
2023-05-06T08:15:26.442Z,101299.34
2023-05-06T08:17:53.286Z,101306.25
2023-05-06T08:20:20.062Z,101305.50
2023-05-06T08:22:46.726Z,101302.88
2023-05-06T08:25:13.519Z,101307.44
2023-05-06T08:27:40.610Z,101312.78
2023-05-06T08:30:08.087Z,101312.19
2023-05-06T08:32:34.783Z,101312.25
2023-05-06T08:35:01.510Z,101310.00
2023-05-06T08:37:30.368Z,101313.44
2023-05-06T08:39:59.291Z,101324.19
2023-05-06T08:42:28.098Z,101318.34
2023-05-06T08:44:55.910Z,101316.66
2023-05-06T08:47:22.798Z,101327.19
2023-05-06T08:49:49.651Z,101320.00
2023-05-06T08:52:16.772Z,101324.25
2023-05-06T08:54:44.304Z,101332.28
2023-05-06T08:57:12.528Z,101336.56
2023-05-06T08:59:41.457Z,101332.97
2023-05-06T09:02:08.469Z,101342.16
2023-05-06T09:04:35.379Z,101341.47
2023-05-06T09:07:02.064Z,101342.78
2023-05-06T09:09:28.860Z,101336.56
2023-05-06T09:11:57.434Z,101335.53
2023-05-06T09:14:24.481Z,101341.69
2023-05-06T09:16:52.826Z,101343.31
2023-05-06T09:19:21.331Z,101345.97
2023-05-06T09:21:50.854Z,101340.44
2023-05-06T09:24:17.969Z,101344.03
2023-05-06T09:26:46.136Z,101338.09
2023-05-06T09:29:13.478Z,101332.66
2023-05-06T09:31:44.835Z,101338.78
2023-05-06T09:34:12.270Z,101343.47
2023-05-06T09:36:39.066Z,101345.28
2023-05-06T09:39:06.703Z,101340.44
2023-05-06T09:41:33.378Z,101343.47
2023-05-06T09:44:00.306Z,101341.31
2023-05-06T09:46:27.980Z,101322.84
2023-05-06T09:48:57.570Z,101352.88
2023-05-06T09:51:27.652Z,101356.97
2023-05-06T09:53:56.521Z,101353.38
2023-05-06T09:56:23.718Z,101357.25
2023-05-06T09:58:52.437Z,101356.38
2023-05-06T10:01:32.553Z,101353.19
2023-05-06T10:04:08.264Z,101348.91
2023-05-06T10:06:39.395Z,101349.94
2023-05-06T10:09:07.858Z,101352.00
2023-05-06T10:11:35.502Z,101347.94
2023-05-06T10:14:03.168Z,101357.03
2023-05-06T10:16:30.413Z,101357.66
2023-05-06T10:18:58.389Z,101358.63
2023-05-06T10:21:29.768Z,101352.19
2023-05-06T10:24:08.913Z,101362.69
2023-05-06T10:26:40.573Z,101358.38
2023-05-06T10:29:10.689Z,101356.13
2023-05-06T10:31:44.768Z,101355.91
2023-05-06T10:34:11.546Z,101356.28
2023-05-06T10:36:39.997Z,101354.97
2023-05-06T10:39:10.084Z,101353.75
2023-05-06T10:41:37.311Z,101358.59
2023-05-06T10:44:04.132Z,101373.44
2023-05-06T10:46:31.056Z,101364.34
2023-05-06T10:49:04.361Z,101372.41
2023-05-06T10:51:34.691Z,101365.22
2023-05-06T10:54:02.708Z,101371.38
2023-05-06T10:56:35.304Z,101370.06
2023-05-06T10:59:05.680Z,101371.50
2023-05-06T11:01:32.439Z,101365.88
2023-05-06T11:04:04.888Z,101375.56
2023-05-06T11:06:44.894Z,101371.47
2023-05-06T11:09:57.600Z,101368.56
2023-05-06T11:12:47.061Z,101365.41
2023-05-06T11:15:35.970Z,101374.88
2023-05-06T11:18:26.299Z,101372.31
2023-05-06T11:21:05.258Z,101372.16
2023-05-06T11:23:49.379Z,101362.88
2023-05-06T11:26:16.515Z,101370.91
2023-05-06T11:28:45.274Z,101370.09
2023-05-06T11:31:13.334Z,101368.16
2023-05-06T11:33:52.327Z,101374.47
2023-05-06T11:36:20.566Z,101375.34
2023-05-06T11:38:49.533Z,101372.03
2023-05-06T11:41:17.250Z,101376.25
2023-05-06T11:43:50.841Z,101383.16
2023-05-06T11:46:22.123Z,101385.13
2023-05-06T11:48:50.306Z,101387.25
2023-05-06T11:51:22.020Z,101376.63
2023-05-06T11:53:48.807Z,101382.47
2023-05-06T11:56:15.730Z,101375.44
2023-05-06T11:58:43.885Z,101373.88
2023-05-06T12:01:10.845Z,101384.94
2023-05-06T12:03:37.870Z,101391.56
2023-05-06T12:06:04.552Z,101393.78
2023-05-06T12:11:02.489Z,101390.75
2023-05-06T12:13:29.915Z,101395.66
2023-05-06T12:15:59.343Z,101398.47
2023-05-06T12:18:26.658Z,101395.56
2023-05-06T12:20:54.640Z,101396.06
2023-05-06T12:23:21.949Z,101399.97
2023-05-06T12:26:02.010Z,101408.28
2023-05-06T12:28:28.576Z,101405.72
2023-05-06T12:30:55.159Z,101415.56
2023-05-06T12:33:22.354Z,101409.75
2023-05-06T12:35:51.493Z,101418.00
2023-05-06T12:38:18.722Z,101421.88
2023-05-06T12:40:53.576Z,101422.19
2023-05-06T12:43:28.805Z,101410.25
2023-05-06T12:46:06.563Z,101416.38
2023-05-06T12:48:33.450Z,101419.56
2023-05-06T12:50:59.982Z,101416.84
2023-05-06T12:53:32.868Z,101422.50
2023-05-06T12:55:59.371Z,101410.88
2023-05-06T12:58:25.897Z,101418.66
2023-05-06T13:00:52.427Z,101416.31
2023-05-06T13:03:19.248Z,101421.69
2023-05-06T13:05:50.141Z,101422.88
2023-05-06T13:08:17.556Z,101418.94
2023-05-06T13:10:44.044Z,101416.53
2023-05-06T13:13:10.570Z,101421.72
2023-05-06T13:15:37.269Z,101412.25
2023-05-06T13:18:04.275Z,101418.31
2023-05-06T13:20:32.309Z,101417.34
2023-05-06T13:22:59.213Z,101429.97
2023-05-06T13:25:25.896Z,101429.09
2023-05-06T13:27:52.902Z,101427.97
2023-05-06T13:30:19.363Z,101424.09
2023-05-06T13:32:46.775Z,101424.78
2023-05-06T13:35:13.468Z,101431.72
2023-05-06T13:37:40.061Z,101428.69
